Airfield :
LOGIN :

Register | Disclaimer

   EN    FR    IT 

 










Legend :    VFR   Marginal VFR   IFR   Intensive IFR   Very Intensive IFR
Visi :
Ceiling :
>= 8 km
>= 3000ft
5 to 8 km
1000 to 3000 ft
1500m to 5 km
500 to 1000 ft
800 to 1500m
200 to 500 ft
< 800m
< 200 ft
Symbols :   Thunderstorms  Fog  Heavy snow  Heavy precipitations  Wind > 20 kt
SIGMETs :     Misc.  Thunderstorms  Icing  Turbulence  Mountain Waves  Volcanic Ashes






- Airport Elevation : 278 ft
- IATA code : RJK


LDRI - Rijeka

CURRENT METAR :
  • 191100Z VRB02KT 9999 FEW026 BKN034 07/00 Q1025

EXPIRED METARs :
  • 191030Z 11005KT 050V180 9999 SCT037 07/00 Q1025
  • 191000Z 16004KT 110V250 9999 FEW040 07/00 Q1025
  • 190930Z 13004KT 9999 FEW040 07/01 Q1025
  • 190900Z 13004KT 9999 BKN040 06/01 Q1025
  • 190830Z 11005KT 9999 BKN040 06/02 Q1025

TAF TAF LDRI
Valid from the 19 at 06:00 until the 20 at 06:00 UTC


190525Z 1906/2006 VRB02KT 9999 SCT030 TX08/1912Z TN03/1906Z



MET'MAP, your aeronautical weather chart ! - Copyright ORBIFLY December 2007 - Disclaimer

ORBIFLY MET'MAP TEAM :

Programming & Development : Alexandra Zaïnal
Concept & original design : Baudouin d'Aumeries
Assistance for programming : Marc-Olivier Méhu
Technical & hardware support : Manuel Goepfert

Contact : metmap@orbifly.com




SOURCES & CREDITS :

   NOAA